Terminal Aerodrome Forecast
Issued by NWS Charleston, SC

Home | Current Version | Previous Version | Text Only | Print | Product List | Glossary On
Versions: 1 2 3 4 5 6 7 8 9 10 11 12 13 14 15 16 17 18 19 20 21 22 23 24 25 26 27 28 29
335
FTUS42 KCHS 222320
TAFSAV
TAF
KSAV 222320Z 2300/2324 13013KT 5SM -TSRA BR SCT008 BKN035CB
      TEMPO 2300/2302 23017G27KT 2SM TSRA BR OVC020CB
     FM230200 24014G22KT P6SM SCT050
     FM231100 25014G22KT P6SM VCSH BKN015
     FM231900 27018G27KT P6SM BKN035
     FM232300 28016G24KT P6SM SCT035=

USA.gov is the U.S. government's official web portal to all federal, state and local government web resources and services.